^^
NorthLandsweather Station Historical Data
Daily Summary for October 17, 2019 Units:  Both    English   Metric
Daily Weekly Monthly Yearly Custom
  High: Low: Average:
Temperature: 51.2 °F /  10.7 °C 34 °F /  1.1 °C 43.1 °F /  6.2 °C
Dew Point: 41.1 °F /  5.1 °C 29.7 °F /  -1.3 °C 37.6 °F /  3.1 °C
Humidity: 99% 66% 81%
Wind Speed: 4.6mph /  7.4km/h - 0.7mph /  1.1km/h
Wind Gust: 2.8mph /  4.5km/h - -
Wind- - SE
Pressure: 9999.00 in /  338566.1 hPa 29.98 in /  1015.1 hPa -
Precipitation: 0 in /  0 mm    
Historical Graphs
 
 
Tabular Data for October 17, 2019
Time Temperature Dew Point Pressure Wind Wind Speed Wind Gust Humidity Rainfall Rate (Hourly) solar
00:00 42.1 °F /  5.6 °C 37.3 °F /  2.9 °C 30.06in /  1017.8hPa Calm     83% 0in /  0mm 0.00 W/m2
00:05 42.1 °F /  5.6 °C 37.3 °F /  2.9 °C 30.06in /  1017.8hPa Calm     83% 0in /  0mm 0.00 W/m2
00:10 42.1 °F /  5.6 °C 37.6 °F /  3.1 °C 30.06in /  1017.8hPa Calm     84% 0in /  0mm 0.00 W/m2
00:15 42.1 °F /  5.6 °C 37.3 °F /  2.9 °C 30.06in /  1017.8hPa Calm     83% 0in /  0mm 0.00 W/m2
00:20 42.1 °F /  5.6 °C 37.3 °F /  2.9 °C 30.06in /  1017.8hPa Calm     83% 0in /  0mm 0.00 W/m2
00:25 42.1 °F /  5.6 °C 37.6 °F /  3.1 °C 30.06in /  1017.8hPa NE 1.2mph /  1.9km/h 0.1mph /  0.2km/h 84% 0in /  0mm 0.00 W/m2
00:30 42 °F /  5.6 °C 37.5 °F /  3.1 °C 30.07in /  1018.2hPa Calm     84% 0in /  0mm 0.00 W/m2
00:35 42 °F /  5.6 °C 37.5 °F /  3.1 °C 30.07in /  1018.2hPa NE 3.5mph /  5.6km/h 0.9mph /  1.4km/h 84% 0in /  0mm 0.00 W/m2
00:40 42 °F /  5.6 °C 37.5 °F /  3.1 °C 30.07in /  1018.2hPa Calm     84% 0in /  0mm 0.00 W/m2
00:45 42 °F /  5.6 °C 37.5 °F /  3.1 °C 30.06in /  1017.8hPa Calm     84% 0in /  0mm 0.00 W/m2
00:50 42.1 °F /  5.6 °C 37.3 °F /  2.9 °C 30.06in /  1017.8hPa Calm     83% 0in /  0mm 0.00 W/m2
00:55 42.1 °F /  5.6 °C 37.6 °F /  3.1 °C 30.06in /  1017.8hPa Calm     84% 0in /  0mm 0.00 W/m2
01:00 42 °F /  5.6 °C 37.5 °F /  3.1 °C 30.05in /  1017.5hPa Calm     84% 0in /  0mm 0.00 W/m2
01:05 42 °F /  5.6 °C 37.5 °F /  3.1 °C 30.05in /  1017.5hPa Calm     84% 0in /  0mm 0.00 W/m2
01:10 41.9 °F /  5.5 °C 37.1 °F /  2.8 °C 30.05in /  1017.5hPa Calm     83% 0in /  0mm 0.00 W/m2
01:15 41.9 °F /  5.5 °C 37.1 °F /  2.8 °C 30.05in /  1017.5hPa Calm     83% 0in /  0mm 0.00 W/m2
01:20 41.8 °F /  5.4 °C 37 °F /  2.8 °C 30.05in /  1017.5hPa Calm     83% 0in /  0mm 0.00 W/m2
01:25 41.8 °F /  5.4 °C 37 °F /  2.8 °C 30.05in /  1017.5hPa Calm     83% 0in /  0mm 0.00 W/m2
01:30 41.8 °F /  5.4 °C 37 °F /  2.8 °C 30.05in /  1017.5hPa Calm     83% 0in /  0mm 0.00 W/m2
01:35 41.7 °F /  5.4 °C 36.9 °F /  2.7 °C 30.05in /  1017.5hPa Calm     83% 0in /  0mm 0.00 W/m2
01:40 41.7 °F /  5.4 °C 36.9 °F /  2.7 °C 30.05in /  1017.5hPa Calm     83% 0in /  0mm 0.00 W/m2
01:45 41.6 °F /  5.3 °C 36.8 °F /  2.7 °C 30.05in /  1017.5hPa Calm     83% 0in /  0mm 0.00 W/m2
01:50 41.6 °F /  5.3 °C 36.8 °F /  2.7 °C 30.05in /  1017.5hPa Calm     83% 0in /  0mm 0.00 W/m2
01:55 41.6 °F /  5.3 °C 36.8 °F /  2.7 °C 30.05in /  1017.5hPa Calm     83% 0in /  0mm 0.00 W/m2
02:00 41.6 °F /  5.3 °C 36.8 °F /  2.7 °C 30.05in /  1017.5hPa Calm     83% 0in /  0mm 0.00 W/m2
02:05 41.6 °F /  5.3 °C 36.8 °F /  2.7 °C 30.05in /  1017.5hPa Calm     83% 0in /  0mm 0.00 W/m2
02:10 41.6 °F /  5.3 °C 36.8 °F /  2.7 °C 30.05in /  1017.5hPa Calm     83% 0in /  0mm 0.00 W/m2
02:15 41.6 °F /  5.3 °C 36.8 °F /  2.7 °C 30.05in /  1017.5hPa NE 1.2mph /  1.9km/h 0.1mph /  0.2km/h 83% 0in /  0mm 0.00 W/m2
02:20 41.6 °F /  5.3 °C 36.8 °F /  2.7 °C 30.05in /  1017.5hPa Calm     83% 0in /  0mm 0.00 W/m2
02:25 41.6 °F /  5.3 °C 36.8 °F /  2.7 °C 30.05in /  1017.5hPa Calm     83% 0in /  0mm 0.00 W/m2
02:30 41.6 °F /  5.3 °C 36.8 °F /  2.7 °C 30.05in /  1017.5hPa Calm     83% 0in /  0mm 0.00 W/m2
02:35 41.6 °F /  5.3 °C 36.8 °F /  2.7 °C 30.05in /  1017.5hPa Calm     83% 0in /  0mm 0.00 W/m2
02:40 41.5 °F /  5.3 °C 36.7 °F /  2.6 °C 30.05in /  1017.5hPa Calm     83% 0in /  0mm 0.00 W/m2
02:45 41.5 °F /  5.3 °C 37 °F /  2.8 °C 30.05in /  1017.5hPa NE 1.2mph /  1.9km/h   84% 0in /  0mm 0.00 W/m2
02:50 41.5 °F /  5.3 °C 37 °F /  2.8 °C 30.05in /  1017.5hPa Calm     84% 0in /  0mm 0.00 W/m2
02:55 41.5 °F /  5.3 °C 37 °F /  2.8 °C 30.05in /  1017.5hPa WNW 2.3mph /  3.7km/h 0.2mph /  0.3km/h 84% 0in /  0mm 0.00 W/m2
03:00 41.5 °F /  5.3 °C 37 °F /  2.8 °C 30.05in /  1017.5hPa Calm     84% 0in /  0mm 0.00 W/m2
03:05 41.5 °F /  5.3 °C 37 °F /  2.8 °C 30.05in /  1017.5hPa Calm     84% 0in /  0mm 0.00 W/m2
03:10 41.5 °F /  5.3 °C 37 °F /  2.8 °C 30.05in /  1017.5hPa WSW 1.2mph /  1.9km/h 0.1mph /  0.2km/h 84% 0in /  0mm 0.00 W/m2
03:15 41.5 °F /  5.3 °C 37 °F /  2.8 °C 30.05in /  1017.5hPa Calm     84% 0in /  0mm 0.00 W/m2
03:20 41.5 °F /  5.3 °C 37 °F /  2.8 °C 30.04in /  1017.2hPa Calm     84% 0in /  0mm 0.00 W/m2
03:25 41.5 °F /  5.3 °C 37 °F /  2.8 °C 30.04in /  1017.2hPa Calm     84% 0in /  0mm 0.00 W/m2
03:30 41.5 °F /  5.3 °C 37 °F /  2.8 °C 30.05in /  1017.5hPa West 1.2mph /  1.9km/h 0.5mph /  0.8km/h 84% 0in /  0mm 0.00 W/m2
03:35 41.5 °F /  5.3 °C 37 °F /  2.8 °C 30.04in /  1017.2hPa Calm     84% 0in /  0mm 0.00 W/m2
03:40 41.5 °F /  5.3 °C 37 °F /  2.8 °C 30.04in /  1017.2hPa Calm     84% 0in /  0mm 0.00 W/m2
03:45 41.5 °F /  5.3 °C 37 °F /  2.8 °C 30.04in /  1017.2hPa Calm     84% 0in /  0mm 0.00 W/m2
03:50 41.4 °F /  5.2 °C 36.9 °F /  2.7 °C 30.04in /  1017.2hPa Calm     84% 0in /  0mm 0.00 W/m2
03:55 41.4 °F /  5.2 °C 36.9 °F /  2.7 °C 30.04in /  1017.2hPa Calm     84% 0in /  0mm 0.00 W/m2
04:00 41.4 °F /  5.2 °C 36.9 °F /  2.7 °C 30.04in /  1017.2hPa West 1.2mph /  1.9km/h   84% 0in /  0mm 0.00 W/m2
04:05 41.4 °F /  5.2 °C 36.9 °F /  2.7 °C 30.04in /  1017.2hPa West 1.2mph /  1.9km/h 0.1mph /  0.2km/h 84% 0in /  0mm 0.00 W/m2
04:10 41.4 °F /  5.2 °C 36.9 °F /  2.7 °C 30.04in /  1017.2hPa Calm     84% 0in /  0mm 0.00 W/m2
04:15 41.4 °F /  5.2 °C 36.9 °F /  2.7 °C 30.04in /  1017.2hPa West 2.3mph /  3.7km/h 0.6mph /  1km/h 84% 0in /  0mm 0.00 W/m2
04:20 41.4 °F /  5.2 °C 36.9 °F /  2.7 °C 30.04in /  1017.2hPa West 1.2mph /  1.9km/h 0.4mph /  0.6km/h 84% 0in /  0mm 0.00 W/m2
04:25 41.4 °F /  5.2 °C 36.9 °F /  2.7 °C 30.04in /  1017.2hPa West 3.5mph /  5.6km/h 0.8mph /  1.3km/h 84% 0in /  0mm 0.00 W/m2
04:30 41.4 °F /  5.2 °C 36.9 °F /  2.7 °C 30.04in /  1017.2hPa Calm     84% 0in /  0mm 0.00 W/m2
04:35 41.4 °F /  5.2 °C 36.9 °F /  2.7 °C 30.04in /  1017.2hPa Calm     84% 0in /  0mm 0.00 W/m2
04:40 41.4 °F /  5.2 °C 36.9 °F /  2.7 °C 30.04in /  1017.2hPa Calm     84% 0in /  0mm 0.00 W/m2
04:45 41.4 °F /  5.2 °C 36.9 °F /  2.7 °C 30.04in /  1017.2hPa Calm     84% 0in /  0mm 0.00 W/m2
04:50 41.4 °F /  5.2 °C 36.9 °F /  2.7 °C 30.04in /  1017.2hPa Calm     84% 0in /  0mm 0.00 W/m2
04:55 41.3 °F /  5.2 °C 36.8 °F /  2.7 °C 30.04in /  1017.2hPa Calm     84% 0in /  0mm 0.00 W/m2
05:00 41.3 °F /  5.2 °C 36.8 °F /  2.7 °C 30.04in /  1017.2hPa Calm     84% 0in /  0mm 0.00 W/m2
05:05 41.2 °F /  5.1 °C 36.7 °F /  2.6 °C 30.04in /  1017.2hPa Calm     84% 0in /  0mm 0.00 W/m2
05:10 41.1 °F /  5.1 °C 36.6 °F /  2.6 °C 30.05in /  1017.5hPa Calm     84% 0in /  0mm 0.00 W/m2
05:15 41.1 °F /  5.1 °C 36.6 °F /  2.6 °C 30.05in /  1017.5hPa Calm     84% 0in /  0mm 0.00 W/m2
05:20 41.1 °F /  5.1 °C 36.6 °F /  2.6 °C 30.05in /  1017.5hPa Calm     84% 0in /  0mm 0.00 W/m2
05:25 41.1 °F /  5.1 °C 36.6 °F /  2.6 °C 30.05in /  1017.5hPa Calm     84% 0in /  0mm 0.00 W/m2
05:30 41 °F /  5 °C 36.2 °F /  2.3 °C 30.05in /  1017.5hPa Calm     83% 0in /  0mm 0.00 W/m2
05:35 41 °F /  5 °C 36.5 °F /  2.5 °C 30.05in /  1017.5hPa Calm     84% 0in /  0mm 0.00 W/m2
05:40 41 °F /  5 °C 36.2 °F /  2.3 °C 30.04in /  1017.2hPa Calm     83% 0in /  0mm 0.00 W/m2
05:45 41 °F /  5 °C 36.2 °F /  2.3 °C 30.05in /  1017.5hPa Calm     83% 0in /  0mm 0.00 W/m2
05:50 40.9 °F /  4.9 °C 36.4 °F /  2.4 °C 30.05in /  1017.5hPa Calm     84% 0in /  0mm 0.00 W/m2
05:55 40.9 °F /  4.9 °C 36.4 °F /  2.4 °C 30.05in /  1017.5hPa Calm     84% 0in /  0mm 0.00 W/m2
06:00 40.9 °F /  4.9 °C 36.1 °F /  2.3 °C 30.05in /  1017.5hPa Calm     83% 0in /  0mm 0.00 W/m2
06:05 40.9 °F /  4.9 °C 36.1 °F /  2.3 °C 30.05in /  1017.5hPa Calm     83% 0in /  0mm 0.00 W/m2
06:10 40.8 °F /  4.9 °C 36 °F /  2.2 °C 30.05in /  1017.5hPa Calm     83% 0in /  0mm 0.00 W/m2
06:15 40.8 °F /  4.9 °C 36 °F /  2.2 °C 30.05in /  1017.5hPa Calm     83% 0in /  0mm 0.00 W/m2
06:20 40.8 °F /  4.9 °C 36 °F /  2.2 °C 30.05in /  1017.5hPa Calm     83% 0in /  0mm 0.00 W/m2
06:25 40.8 °F /  4.9 °C 36 °F /  2.2 °C 30.05in /  1017.5hPa Calm     83% 0in /  0mm 0.00 W/m2
06:30 40.8 °F /  4.9 °C 36.3 °F /  2.4 °C 30.05in /  1017.5hPa Calm     84% 0in /  0mm 0.00 W/m2
06:35 40.8 °F /  4.9 °C 36 °F /  2.2 °C 30.06in /  1017.8hPa Calm     83% 0in /  0mm 0.00 W/m2
06:40 40.7 °F /  4.8 °C 36.2 °F /  2.3 °C 30.06in /  1017.8hPa Calm     84% 0in /  0mm 0.00 W/m2
06:45 40.7 °F /  4.8 °C 35.9 °F /  2.2 °C 30.06in /  1017.8hPa Calm     83% 0in /  0mm 0.00 W/m2
06:50 40.7 °F /  4.8 °C 35.9 °F /  2.2 °C 30.06in /  1017.8hPa Calm     83% 0in /  0mm 0.00 W/m2
06:55 40.7 °F /  4.8 °C 35.9 °F /  2.2 °C 30.06in /  1017.8hPa Calm     83% 0in /  0mm 0.00 W/m2
07:00 40.7 °F /  4.8 °C 35.9 °F /  2.2 °C 30.06in /  1017.8hPa Calm     83% 0in /  0mm 0.00 W/m2
07:05 40.6 °F /  4.8 °C 35.8 °F /  2.1 °C 30.06in /  1017.8hPa Calm     83% 0in /  0mm 0.00 W/m2
07:10 40.7 °F /  4.8 °C 35.9 °F /  2.2 °C 30.06in /  1017.8hPa Calm     83% 0in /  0mm 0.00 W/m2
07:15 40.6 °F /  4.8 °C 35.8 °F /  2.1 °C 30.06in /  1017.8hPa Calm     83% 0in /  0mm 0.00 W/m2
07:20 40.6 °F /  4.8 °C 35.8 °F /  2.1 °C 30.07in /  1018.2hPa Calm     83% 0in /  0mm 0.00 W/m2
07:25 40.6 °F /  4.8 °C 35.8 °F /  2.1 °C 30.06in /  1017.8hPa Calm     83% 0in /  0mm 75.40 W/m2
07:30 40.6 °F /  4.8 °C 35.8 °F /  2.1 °C 30.06in /  1017.8hPa Calm     83% 0in /  0mm 125.90 W/m2
07:35 40.6 °F /  4.8 °C 35.8 °F /  2.1 °C 30.06in /  1017.8hPa Calm     83% 0in /  0mm 137.10 W/m2
07:40 40.5 °F /  4.7 °C 35.7 °F /  2.1 °C 30.06in /  1017.8hPa Calm     83% 0in /  0mm 155.20 W/m2
07:45 40.5 °F /  4.7 °C 35.7 °F /  2.1 °C 30.06in /  1017.8hPa Calm     83% 0in /  0mm 172.40 W/m2
07:50 40.6 °F /  4.8 °C 35.8 °F /  2.1 °C 30.07in /  1018.2hPa Calm     83% 0in /  0mm 173.40 W/m2
07:55 40.6 °F /  4.8 °C 35.8 °F /  2.1 °C 30.07in /  1018.2hPa Calm     83% 0in /  0mm 184.50 W/m2
08:00 40.6 °F /  4.8 °C 35.8 °F /  2.1 °C 30.07in /  1018.2hPa Calm     83% 0in /  0mm 195.60 W/m2
08:05 40.6 °F /  4.8 °C 35.8 °F /  2.1 °C 30.06in /  1017.8hPa Calm     83% 0in /  0mm 201.70 W/m2
08:10 40.7 °F /  4.8 °C 35.9 °F /  2.2 °C 30.07in /  1018.2hPa Calm     83% 0in /  0mm 204.70 W/m2
08:15 40.7 °F /  4.8 °C 35.9 °F /  2.2 °C 30.07in /  1018.2hPa Calm     83% 0in /  0mm 208.80 W/m2
08:20 40.9 °F /  4.9 °C 36.1 °F /  2.3 °C 30.07in /  1018.2hPa Calm     83% 0in /  0mm 214.80 W/m2
08:25 40.9 °F /  4.9 °C 36.1 °F /  2.3 °C 30.07in /  1018.2hPa Calm     83% 0in /  0mm 214.80 W/m2
08:30 41 °F /  5 °C 36.2 °F /  2.3 °C 30.07in /  1018.2hPa Calm     83% 0in /  0mm 230.00 W/m2
08:35 41.1 °F /  5.1 °C 36.3 °F /  2.4 °C 30.07in /  1018.2hPa Calm     83% 0in /  0mm 235.00 W/m2
08:40 41.1 °F /  5.1 °C 36.3 °F /  2.4 °C 30.07in /  1018.2hPa Calm     83% 0in /  0mm 242.10 W/m2
08:45 41.2 °F /  5.1 °C 36.7 °F /  2.6 °C 30.07in /  1018.2hPa Calm     84% 0in /  0mm 247.10 W/m2
08:50 41.3 °F /  5.2 °C 36.8 °F /  2.7 °C 30.07in /  1018.2hPa Calm     84% 0in /  0mm 251.20 W/m2
08:55 41.4 °F /  5.2 °C 36.9 °F /  2.7 °C 30.07in /  1018.2hPa Calm     84% 0in /  0mm 249.20 W/m2
09:00 41.5 °F /  5.3 °C 37 °F /  2.8 °C 30.07in /  1018.2hPa Calm     84% 0in /  0mm 247.10 W/m2
09:05 41.7 °F /  5.4 °C 37.2 °F /  2.9 °C 30.07in /  1018.2hPa Calm     84% 0in /  0mm 244.10 W/m2
09:10 41.8 °F /  5.4 °C 37.3 °F /  2.9 °C 30.07in /  1018.2hPa Calm     84% 0in /  0mm 254.20 W/m2
09:15 42 °F /  5.6 °C 37.5 °F /  3.1 °C 30.08in /  1018.5hPa Calm     84% 0in /  0mm 259.30 W/m2
09:20 42.1 °F /  5.6 °C 37.6 °F /  3.1 °C 30.08in /  1018.5hPa Calm     84% 0in /  0mm 253.20 W/m2
09:25 42.3 °F /  5.7 °C 37.8 °F /  3.2 °C 30.07in /  1018.2hPa Calm     84% 0in /  0mm 249.20 W/m2
09:30 42.4 °F /  5.8 °C 37.9 °F /  3.3 °C 30.07in /  1018.2hPa Calm     84% 0in /  0mm 253.20 W/m2
09:35 42.5 °F /  5.8 °C 38 °F /  3.3 °C 30.07in /  1018.2hPa Calm     84% 0in /  0mm 250.20 W/m2
09:40 42.7 °F /  5.9 °C 38.2 °F /  3.4 °C 30.07in /  1018.2hPa Calm     84% 0in /  0mm 261.30 W/m2
09:45 42.9 °F /  6.1 °C 38.4 °F /  3.6 °C 30.07in /  1018.2hPa West 1.2mph /  1.9km/h 0.3mph /  0.5km/h 84% 0in /  0mm 266.30 W/m2
09:50 43.1 °F /  6.2 °C 38.6 °F /  3.7 °C 30.07in /  1018.2hPa Calm     84% 0in /  0mm 262.30 W/m2
09:55 43.2 °F /  6.2 °C 38.7 °F /  3.7 °C 30.07in /  1018.2hPa Calm     84% 0in /  0mm 269.40 W/m2
10:00 43.4 °F /  6.3 °C 38.9 °F /  3.8 °C 30.07in /  1018.2hPa West 1.2mph /  1.9km/h 0.2mph /  0.3km/h 84% 0in /  0mm 274.40 W/m2
10:05 43.6 °F /  6.4 °C 38.8 °F /  3.8 °C 30.07in /  1018.2hPa Calm     83% 0in /  0mm 278.40 W/m2
10:10 43.7 °F /  6.5 °C 38.9 °F /  3.8 °C 30.08in /  1018.5hPa West 1.2mph /  1.9km/h 0.5mph /  0.8km/h 83% 0in /  0mm 291.60 W/m2
10:15 43.9 °F /  6.6 °C 39.1 °F /  3.9 °C 30.08in /  1018.5hPa West 1.2mph /  1.9km/h 0.7mph /  1.1km/h 83% 0in /  0mm 285.50 W/m2
10:20 44.1 °F /  6.7 °C 39.3 °F /  4.1 °C 30.08in /  1018.5hPa West 1.2mph /  1.9km/h 0.2mph /  0.3km/h 83% 0in /  0mm 297.60 W/m2
10:25 44.3 °F /  6.8 °C 39.5 °F /  4.2 °C 30.08in /  1018.5hPa Calm     83% 0in /  0mm 318.80 W/m2
10:30 44.5 °F /  6.9 °C 39.7 °F /  4.3 °C 30.08in /  1018.5hPa SSE 2.3mph /  3.7km/h 0.5mph /  0.8km/h 83% 0in /  0mm 321.90 W/m2
10:35 44.6 °F /  7 °C 39.4 °F /  4.1 °C 30.08in /  1018.5hPa SSE 1.2mph /  1.9km/h 0.6mph /  1km/h 82% 0in /  0mm 321.90 W/m2
10:40 44.7 °F /  7.1 °C 39.5 °F /  4.2 °C 30.08in /  1018.5hPa Calm     82% 0in /  0mm 327.90 W/m2
10:45 45 °F /  7.2 °C 39.8 °F /  4.3 °C 30.08in /  1018.5hPa Calm     82% 0in /  0mm 325.90 W/m2
10:50 45.2 °F /  7.3 °C 40 °F /  4.4 °C 30.08in /  1018.5hPa SSE 2.3mph /  3.7km/h 1mph /  1.6km/h 82% 0in /  0mm 324.90 W/m2
10:55 45.3 °F /  7.4 °C 39.8 °F /  4.3 °C 30.08in /  1018.5hPa SSE 1.2mph /  1.9km/h 0.1mph /  0.2km/h 81% 0in /  0mm 325.90 W/m2
11:00 45.2 °F /  7.3 °C 39.1 °F /  3.9 °C 30.08in /  1018.5hPa Calm     79% 0in /  0mm 325.90 W/m2
11:05 45.2 °F /  7.3 °C 39.1 °F /  3.9 °C 30.08in /  1018.5hPa Calm     79% 0in /  0mm 330.00 W/m2
11:10 45.4 °F /  7.4 °C 39.3 °F /  4.1 °C 30.08in /  1018.5hPa SSE 2.3mph /  3.7km/h 0.4mph /  0.6km/h 79% 0in /  0mm 330.00 W/m2
11:15 45.4 °F /  7.4 °C 39.3 °F /  4.1 °C 30.08in /  1018.5hPa SSE 1.2mph /  1.9km/h 0.3mph /  0.5km/h 79% 0in /  0mm 339.10 W/m2
11:20 45.4 °F /  7.4 °C 38.9 °F /  3.8 °C 30.08in /  1018.5hPa SSE 1.2mph /  1.9km/h 0.8mph /  1.3km/h 78% 0in /  0mm 344.10 W/m2
11:25 45.5 °F /  7.5 °C 38.7 °F /  3.7 °C 30.08in /  1018.5hPa Calm     77% 0in /  0mm 339.10 W/m2
11:30 45.6 °F /  7.6 °C 39.1 °F /  3.9 °C 30.08in /  1018.5hPa SSE 3mph /  4.8km/h 0.9mph /  1.4km/h 78% 0in /  0mm 343.10 W/m2
11:35 45.7 °F /  7.6 °C 39.6 °F /  4.2 °C 30.08in /  1018.5hPa SSE 1mph /  1.6km/h   79% 0in /  0mm 345.10 W/m2
11:40 45.8 °F /  7.7 °C 39 °F /  3.9 °C 30.08in /  1018.5hPa SE 1.2mph /  1.9km/h 0.1mph /  0.2km/h 77% 0in /  0mm 346.10 W/m2
11:45 45.9 °F /  7.7 °C 39.1 °F /  3.9 °C 30.07in /  1018.2hPa SE 1.2mph /  1.9km/h 0.2mph /  0.3km/h 77% 0in /  0mm 352.20 W/m2
11:50 46 °F /  7.8 °C 39.2 °F /  4 °C 30.07in /  1018.2hPa SSE 1.2mph /  1.9km/h 0.1mph /  0.2km/h 77% 0in /  0mm 353.20 W/m2
11:55 46.1 °F /  7.8 °C 39.3 °F /  4.1 °C 30.07in /  1018.2hPa SSE 2.3mph /  3.7km/h 1.2mph /  1.9km/h 77% 0in /  0mm 351.20 W/m2
12:00 46.2 °F /  7.9 °C 39.7 °F /  4.3 °C 30.07in /  1018.2hPa Calm     78% 0in /  0mm 342.10 W/m2
12:05 46.4 °F /  8 °C 39.6 °F /  4.2 °C 30.07in /  1018.2hPa ESE 2.3mph /  3.7km/h 0.8mph /  1.3km/h 77% 0in /  0mm 352.20 W/m2
12:10 46.5 °F /  8.1 °C 39.7 °F /  4.3 °C 30.07in /  1018.2hPa ESE 2.3mph /  3.7km/h 1.3mph /  2.1km/h 77% 0in /  0mm 347.10 W/m2
12:15 46.6 °F /  8.1 °C 39.8 °F /  4.3 °C 30.07in /  1018.2hPa ESE 2.3mph /  3.7km/h 0.9mph /  1.4km/h 77% 0in /  0mm 351.20 W/m2
12:20 46.7 °F /  8.2 °C 39.9 °F /  4.4 °C 30.07in /  1018.2hPa ESE 1.2mph /  1.9km/h   77% 0in /  0mm 350.20 W/m2
12:25 46.8 °F /  8.2 °C 39.6 °F /  4.2 °C 30.06in /  1017.8hPa ESE 2.3mph /  3.7km/h 0.7mph /  1.1km/h 76% 0in /  0mm 348.10 W/m2
12:30 46.9 °F /  8.3 °C 39.7 °F /  4.3 °C 30.06in /  1017.8hPa Calm     76% 0in /  0mm 357.20 W/m2
12:35 47.1 °F /  8.4 °C 39.9 °F /  4.4 °C 30.06in /  1017.8hPa ESE 3.5mph /  5.6km/h 1.9mph /  3.1km/h 76% 0in /  0mm 361.30 W/m2
12:40 47.3 °F /  8.5 °C 39.8 °F /  4.3 °C 30.06in /  1017.8hPa NE 2.3mph /  3.7km/h 1.2mph /  1.9km/h 75% 0in /  0mm 349.20 W/m2
12:45 47.5 °F /  8.6 °C 40.3 °F /  4.6 °C 30.07in /  1018.2hPa NE 2.3mph /  3.7km/h 0.7mph /  1.1km/h 76% 0in /  0mm 350.20 W/m2
12:50 47.7 °F /  8.7 °C 40.2 °F /  4.6 °C 30.06in /  1017.8hPa ENE 2.3mph /  3.7km/h 0.8mph /  1.3km/h 75% 0in /  0mm 349.20 W/m2
12:55 47.8 °F /  8.8 °C 39.9 °F /  4.4 °C 30.05in /  1017.5hPa ENE 2.3mph /  3.7km/h 0.5mph /  0.8km/h 74% 0in /  0mm 352.20 W/m2
13:00 48 °F /  8.9 °C 40.1 °F /  4.5 °C 30.05in /  1017.5hPa Calm     74% 0in /  0mm 368.30 W/m2
13:05 48 °F /  8.9 °C 39.8 °F /  4.3 °C 30.05in /  1017.5hPa ENE 1.2mph /  1.9km/h 0.1mph /  0.2km/h 73% 0in /  0mm 366.30 W/m2
13:10 48.2 °F /  9 °C 40.6 °F /  4.8 °C 30.05in /  1017.5hPa Calm     75% 0in /  0mm 377.40 W/m2
13:15 48.2 °F /  9 °C 40.3 °F /  4.6 °C 30.05in /  1017.5hPa ENE 2.3mph /  3.7km/h 1mph /  1.6km/h 74% 0in /  0mm 385.50 W/m2
13:20 48.3 °F /  9.1 °C 39.7 °F /  4.3 °C 30.05in /  1017.5hPa ENE 2.3mph /  3.7km/h 1.1mph /  1.8km/h 72% 0in /  0mm 377.40 W/m2
13:25 48.4 °F /  9.1 °C 40.1 °F /  4.5 °C 30.05in /  1017.5hPa Calm     73% 0in /  0mm 360.30 W/m2
13:30 48.5 °F /  9.2 °C 40.2 °F /  4.6 °C 30.04in /  1017.2hPa ENE 1.2mph /  1.9km/h 0.1mph /  0.2km/h 73% 0in /  0mm 356.20 W/m2
13:35 48.6 °F /  9.2 °C 40.7 °F /  4.8 °C 30.04in /  1017.2hPa ENE 2.3mph /  3.7km/h 0.6mph /  1km/h 74% 0in /  0mm 357.20 W/m2
13:40 48.9 °F /  9.4 °C 40.6 °F /  4.8 °C 30.04in /  1017.2hPa SE 3.5mph /  5.6km/h 2.2mph /  3.5km/h 73% 0in /  0mm 379.40 W/m2
13:45 49 °F /  9.4 °C 40 °F /  4.4 °C 30.04in /  1017.2hPa ESE 1.2mph /  1.9km/h 0.1mph /  0.2km/h 71% 0in /  0mm 383.50 W/m2
13:50 48.9 °F /  9.4 °C 40.6 °F /  4.8 °C 30.04in /  1017.2hPa Calm     73% 0in /  0mm 335.00 W/m2
13:55 49 °F /  9.4 °C 40.4 °F /  4.7 °C 30.04in /  1017.2hPa NE 2.3mph /  3.7km/h 0.8mph /  1.3km/h 72% 0in /  0mm 320.90 W/m2
14:00 49.1 °F /  9.5 °C 39.7 °F /  4.3 °C 30.04in /  1017.2hPa ENE 3.5mph /  5.6km/h 1.1mph /  1.8km/h 70% 0in /  0mm 318.80 W/m2
14:05 49 °F /  9.4 °C 40.4 °F /  4.7 °C 30.04in /  1017.2hPa ENE 2.3mph /  3.7km/h 0.7mph /  1.1km/h 72% 0in /  0mm 319.90 W/m2
14:10 49.1 °F /  9.5 °C 40.1 °F /  4.5 °C 30.04in /  1017.2hPa NE 2.3mph /  3.7km/h 0.5mph /  0.8km/h 71% 0in /  0mm 298.70 W/m2
14:15 49.1 °F /  9.5 °C 40.1 °F /  4.5 °C 30.04in /  1017.2hPa NE 2.3mph /  3.7km/h 0.5mph /  0.8km/h 71% 0in /  0mm 290.60 W/m2
14:20 49 °F /  9.4 °C 40.4 °F /  4.7 °C 30.04in /  1017.2hPa NE 2.3mph /  3.7km/h 1.3mph /  2.1km/h 72% 0in /  0mm 289.60 W/m2
14:25 49.2 °F /  9.6 °C 40.2 °F /  4.6 °C 30.04in /  1017.2hPa NE 2.3mph /  3.7km/h 1.3mph /  2.1km/h 71% 0in /  0mm 312.80 W/m2
14:30 49.3 °F /  9.6 °C 40.3 °F /  4.6 °C 30.04in /  1017.2hPa NE 2.3mph /  3.7km/h 1.1mph /  1.8km/h 71% 0in /  0mm 328.90 W/m2
14:35 49.4 °F /  9.7 °C 40.4 °F /  4.7 °C 30.03in /  1016.8hPa NNE 2.3mph /  3.7km/h 1.3mph /  2.1km/h 71% 0in /  0mm 307.70 W/m2
14:40 49.6 °F /  9.8 °C 40.9 °F /  4.9 °C 30.03in /  1016.8hPa NE 3.5mph /  5.6km/h 1.8mph /  2.9km/h 72% 0in /  0mm 309.80 W/m2
14:45 49.7 °F /  9.8 °C 39.9 °F /  4.4 °C 30.03in /  1016.8hPa ENE 2.3mph /  3.7km/h 0.7mph /  1.1km/h 69% 0in /  0mm 297.60 W/m2
14:50 49.7 °F /  9.8 °C 40.3 °F /  4.6 °C 30.02in /  1016.5hPa SE 3.5mph /  5.6km/h 1.5mph /  2.4km/h 70% 0in /  0mm 297.60 W/m2
14:55 49.8 °F /  9.9 °C 40.4 °F /  4.7 °C 30.02in /  1016.5hPa SE 3.5mph /  5.6km/h 2.1mph /  3.4km/h 70% 0in /  0mm 301.70 W/m2
15:00 50 °F /  10 °C 40.2 °F /  4.6 °C 30.02in /  1016.5hPa ESE 3.5mph /  5.6km/h 1.3mph /  2.1km/h 69% 0in /  0mm 281.50 W/m2
15:05 50 °F /  10 °C 41 °F /  5 °C 30.02in /  1016.5hPa ESE 3mph /  4.8km/h 0.1mph /  0.2km/h 71% 0in /  0mm 281.50 W/m2
15:10 50.1 °F /  10.1 °C 39.9 °F /  4.4 °C 30.02in /  1016.5hPa ESE 2.3mph /  3.7km/h 1mph /  1.6km/h 68% 0in /  0mm 302.70 W/m2
15:15 50.2 °F /  10.1 °C 40.4 °F /  4.7 °C 30.02in /  1016.5hPa ESE 3mph /  4.8km/h 1.2mph /  1.9km/h 69% 0in /  0mm 289.60 W/m2
15:20 50.4 °F /  10.2 °C 40.6 °F /  4.8 °C 30.02in /  1016.5hPa Calm     69% 0in /  0mm 301.70 W/m2
15:25 50.5 °F /  10.3 °C 40.3 °F /  4.6 °C 30.02in /  1016.5hPa SE 2mph /  3.2km/h 0.6mph /  1km/h 68% 0in /  0mm 310.80 W/m2
15:30 50.8 °F /  10.4 °C 40.2 °F /  4.6 °C 30.01in /  1016.1hPa SE 2.3mph /  3.7km/h 1.7mph /  2.7km/h 67% 0in /  0mm 316.80 W/m2
15:35 51.1 °F /  10.6 °C 40.5 °F /  4.7 °C 30.01in /  1016.1hPa SE 1.2mph /  1.9km/h 0.5mph /  0.8km/h 67% 0in /  0mm 337.00 W/m2
15:40 51.2 °F /  10.7 °C 40.6 °F /  4.8 °C 30.01in /  1016.1hPa East 4.6mph /  7.4km/h 2.2mph /  3.5km/h 67% 0in /  0mm 328.90 W/m2
15:45 51.2 °F /  10.7 °C 40.2 °F /  4.6 °C 30.01in /  1016.1hPa South 4.6mph /  7.4km/h 2.8mph /  4.5km/h 66% 0in /  0mm 321.90 W/m2
15:50 51.2 °F /  10.7 °C 40.6 °F /  4.8 °C 30.01in /  1016.1hPa ESE 3mph /  4.8km/h 0.3mph /  0.5km/h 67% 0in /  0mm 821.80 W/m2
15:55 51 °F /  10.6 °C 40.4 °F /  4.7 °C 30.01in /  1016.1hPa ESE 1mph /  1.6km/h   67% 0in /  0mm 623.90 W/m2
16:00 51 °F /  10.6 °C 40 °F /  4.4 °C 30.01in /  1016.1hPa ESE 3.5mph /  5.6km/h 2.2mph /  3.5km/h 66% 0in /  0mm 305.70 W/m2
16:05 50.9 °F /  10.5 °C 40.3 °F /  4.6 °C 30.01in /  1016.1hPa ESE 2.3mph /  3.7km/h 0.4mph /  0.6km/h 67% 0in /  0mm 281.50 W/m2
16:10 50.9 °F /  10.5 °C 40.3 °F /  4.6 °C 30.01in /  1016.1hPa East 2.3mph /  3.7km/h 1.4mph /  2.3km/h 67% 0in /  0mm 250.20 W/m2
16:15 50.9 °F /  10.5 °C 41.1 °F /  5.1 °C 30.00in /  1015.8hPa ENE 1.2mph /  1.9km/h   69% 0in /  0mm 253.20 W/m2
16:20 50.9 °F /  10.5 °C 40.3 °F /  4.6 °C 30.00in /  1015.8hPa ENE 2.3mph /  3.7km/h 0.9mph /  1.4km/h 67% 0in /  0mm 263.30 W/m2
16:25 50.8 °F /  10.4 °C 40.2 °F /  4.6 °C 30.00in /  1015.8hPa ESE 1.2mph /  1.9km/h 0.2mph /  0.3km/h 67% 0in /  0mm 254.20 W/m2
16:30 50.8 °F /  10.4 °C 40.2 °F /  4.6 °C 30.00in /  1015.8hPa ESE 3.5mph /  5.6km/h 1.3mph /  2.1km/h 67% 0in /  0mm 256.20 W/m2
16:35 50.7 °F /  10.4 °C 40.5 °F /  4.7 °C 30.00in /  1015.8hPa South 3mph /  4.8km/h 1.1mph /  1.8km/h 68% 0in /  0mm 249.20 W/m2
16:40 50.6 °F /  10.3 °C 40 °F /  4.4 °C 30.00in /  1015.8hPa ESE 1.2mph /  1.9km/h 0.4mph /  0.6km/h 67% 0in /  0mm 246.10 W/m2
16:45 50.6 °F /  10.3 °C 40 °F /  4.4 °C 30.00in /  1015.8hPa ESE 2.3mph /  3.7km/h 1mph /  1.6km/h 67% 0in /  0mm 240.10 W/m2
16:50 50.5 °F /  10.3 °C 40.7 °F /  4.8 °C 30.00in /  1015.8hPa ENE 1.2mph /  1.9km/h   69% 0in /  0mm 249.20 W/m2
16:55 50.5 °F /  10.3 °C 40.3 °F /  4.6 °C 30.00in /  1015.8hPa ESE 2.3mph /  3.7km/h 1.1mph /  1.8km/h 68% 0in /  0mm 241.10 W/m2
17:00 50.4 °F /  10.2 °C 41 °F /  5 °C 30.00in /  1015.8hPa ESE 1.2mph /  1.9km/h 0.2mph /  0.3km/h 70% 0in /  0mm 242.10 W/m2
17:05 50.2 °F /  10.1 °C 40.4 °F /  4.7 °C 30.00in /  1015.8hPa ESE 1.2mph /  1.9km/h 0.3mph /  0.5km/h 69% 0in /  0mm 241.10 W/m2
17:10 50.2 °F /  10.1 °C 40 °F /  4.4 °C 30.00in /  1015.8hPa ESE 2.3mph /  3.7km/h 1.3mph /  2.1km/h 68% 0in /  0mm 237.00 W/m2
17:15 50.1 °F /  10.1 °C 40.7 °F /  4.8 °C 30.00in /  1015.8hPa ESE 1.2mph /  1.9km/h 0.2mph /  0.3km/h 70% 0in /  0mm 237.00 W/m2
17:20 50 °F /  10 °C 41 °F /  5 °C 30.00in /  1015.8hPa ESE 2.3mph /  3.7km/h 1.5mph /  2.4km/h 71% 0in /  0mm 232.00 W/m2
17:25 49.8 °F /  9.9 °C 40.4 °F /  4.7 °C 30.00in /  1015.8hPa ESE 1.2mph /  1.9km/h 0.1mph /  0.2km/h 70% 0in /  0mm 230.00 W/m2
17:30 49.7 °F /  9.8 °C 40.3 °F /  4.6 °C 30.00in /  1015.8hPa Calm     70% 0in /  0mm 230.00 W/m2
17:35 49.6 °F /  9.8 °C 40.6 °F /  4.8 °C 30.00in /  1015.8hPa ESE 1.2mph /  1.9km/h 0.1mph /  0.2km/h 71% 0in /  0mm 225.90 W/m2
17:40 49.3 °F /  9.6 °C 40.7 °F /  4.8 °C 30.00in /  1015.8hPa Calm     72% 0in /  0mm 223.90 W/m2
17:45 49.1 °F /  9.5 °C 40.5 °F /  4.7 °C 30.00in /  1015.8hPa ESE 1.2mph /  1.9km/h 0.5mph /  0.8km/h 72% 0in /  0mm 216.80 W/m2
17:50 48.7 °F /  9.3 °C 40.4 °F /  4.7 °C 30.00in /  1015.8hPa Calm     73% 0in /  0mm 214.80 W/m2
17:55 48.6 °F /  9.2 °C 40.7 °F /  4.8 °C 29.99in /  1015.5hPa Calm     74% 0in /  0mm 213.80 W/m2
18:00 48.3 °F /  9.1 °C 40.4 °F /  4.7 °C 29.99in /  1015.5hPa Calm     74% 0in /  0mm 205.70 W/m2
18:05 48.1 °F /  8.9 °C 40.5 °F /  4.7 °C 29.99in /  1015.5hPa ESE 1.2mph /  1.9km/h 0.1mph /  0.2km/h 75% 0in /  0mm 195.60 W/m2
18:10 47.7 °F /  8.7 °C 40.2 °F /  4.6 °C 29.99in /  1015.5hPa Calm     75% 0in /  0mm 192.60 W/m2
18:15 47.4 °F /  8.6 °C 40.6 °F /  4.8 °C 29.99in /  1015.5hPa Calm     77% 0in /  0mm 176.40 W/m2
18:20 47 °F /  8.3 °C 40.5 °F /  4.7 °C 29.99in /  1015.5hPa Calm     78% 0in /  0mm 156.20 W/m2
18:25 46.5 °F /  8.1 °C 40 °F /  4.4 °C 29.99in /  1015.5hPa ESE 1.2mph /  1.9km/h   78% 0in /  0mm 143.10 W/m2
18:30 46.1 °F /  7.8 °C 39.6 °F /  4.2 °C 29.99in /  1015.5hPa ESE 1.2mph /  1.9km/h 0.3mph /  0.5km/h 78% 0in /  0mm 96.70 W/m2
18:35 45.9 °F /  7.7 °C 39.4 °F /  4.1 °C 29.99in /  1015.5hPa Calm     78% 0in /  0mm 0.00 W/m2
18:40 45.8 °F /  7.7 °C 39.3 °F /  4.1 °C 29.99in /  1015.5hPa Calm     78% 0in /  0mm 0.00 W/m2
18:45 45.5 °F /  7.5 °C 39.4 °F /  4.1 °C 29.99in /  1015.5hPa Calm     79% 0in /  0mm 0.00 W/m2
18:50 45.1 °F /  7.3 °C 39.3 °F /  4.1 °C 29.98in /  1015.1hPa ESE 1.2mph /  1.9km/h 0.7mph /  1.1km/h 80% 0in /  0mm 0.00 W/m2
18:55 44.7 °F /  7.1 °C 38.9 °F /  3.8 °C 29.99in /  1015.5hPa Calm     80% 0in /  0mm 0.00 W/m2
19:00 44.5 °F /  6.9 °C 38.7 °F /  3.7 °C 29.99in /  1015.5hPa Calm     80% 0in /  0mm 0.00 W/m2
19:05 44.2 °F /  6.8 °C 38.4 °F /  3.6 °C 29.99in /  1015.5hPa Calm     80% 0in /  0mm 0.00 W/m2
19:10 43.9 °F /  6.6 °C 38.4 °F /  3.6 °C 29.99in /  1015.5hPa Calm     81% 0in /  0mm 0.00 W/m2
19:15 43.7 °F /  6.5 °C 38.3 °F /  3.5 °C 29.99in /  1015.5hPa Calm     81% 0in /  0mm 0.00 W/m2
19:20 43.4 °F /  6.3 °C 38 °F /  3.3 °C 30.00in /  1015.8hPa Calm     81% 0in /  0mm 0.00 W/m2
19:25 43.1 °F /  6.2 °C 37.7 °F /  3.2 °C 29.99in /  1015.5hPa Calm     81% 0in /  0mm 0.00 W/m2
19:30 42.9 °F /  6.1 °C 37.8 °F /  3.2 °C 29.99in /  1015.5hPa Calm     82% 0in /  0mm 0.00 W/m2
19:35 42.7 °F /  5.9 °C 37.6 °F /  3.1 °C 29.99in /  1015.5hPa Calm     82% 0in /  0mm 0.00 W/m2
19:41 41.756 °F /  5.4 °C 39.8 °F /  4.3 °C 9999.00in /  338566.1hPa Calm   -999mph /  -1607.7km/h 93% 0.00in /  0mm W/m2
19:46 41.432 °F /  5.2 °C 39.8 °F /  4.3 °C 9999.00in /  338566.1hPa Calm   -999mph /  -1607.7km/h 94% 0.00in /  0mm W/m2
19:51 41.198 °F /  5.1 °C 39.8 °F /  4.3 °C 9999.00in /  338566.1hPa Calm   -999mph /  -1607.7km/h 95% 0.00in /  0mm W/m2
19:56 40.874 °F /  4.9 °C 39.8 °F /  4.3 °C 9999.00in /  338566.1hPa Calm   -999mph /  -1607.7km/h 96% 0.00in /  0mm W/m2
20:01 40.64 °F /  4.8 °C 39.6 °F /  4.2 °C 9999.00in /  338566.1hPa Calm   -999mph /  -1607.7km/h 96% 0.00in /  0mm W/m2
20:06 40.334 °F /  4.6 °C 39.5 °F /  4.2 °C 9999.00in /  338566.1hPa Calm   -999mph /  -1607.7km/h 97% 0.00in /  0mm W/m2
20:12 40.082 °F /  4.5 °C 39.5 °F /  4.2 °C 9999.00in /  338566.1hPa Calm   -999mph /  -1607.7km/h 98% 0.00in /  0mm W/m2
20:16 39.704 °F /  4.3 °C 39.4 °F /  4.1 °C 9999.00in /  338566.1hPa Calm   -999mph /  -1607.7km/h 99% 0.00in /  0mm W/m2
20:21 39.416 °F /  4.1 °C 39.1 °F /  3.9 °C 9999.00in /  338566.1hPa Calm   -999mph /  -1607.7km/h 99% 0.00in /  0mm W/m2
20:27 39.074 °F /  3.9 °C 38.8 °F /  3.8 °C 9999.00in /  338566.1hPa Calm   -999mph /  -1607.7km/h 99% 0.00in /  0mm W/m2
20:31 38.84 °F /  3.8 °C 38.6 °F /  3.7 °C 9999.00in /  338566.1hPa Calm   -999mph /  -1607.7km/h 99% 0.00in /  0mm W/m2
20:36 38.516 °F /  3.6 °C 38.2 °F /  3.4 °C 9999.00in /  338566.1hPa Calm   -999mph /  -1607.7km/h 99% 0.00in /  0mm W/m2
20:42 38.264 °F /  3.5 °C 38 °F /  3.3 °C 9999.00in /  338566.1hPa Calm   -999mph /  -1607.7km/h 99% 0.00in /  0mm W/m2
20:46 37.994 °F /  3.3 °C 37.7 °F /  3.2 °C 9999.00in /  338566.1hPa Calm   -999mph /  -1607.7km/h 99% 0.00in /  0mm W/m2
20:51 37.796 °F /  3.2 °C 37.5 °F /  3.1 °C 9999.00in /  338566.1hPa Calm   -999mph /  -1607.7km/h 99% 0.00in /  0mm W/m2
20:57 37.508 °F /  3.1 °C 37.2 °F /  2.9 °C 9999.00in /  338566.1hPa Calm   -999mph /  -1607.7km/h 99% 0.00in /  0mm W/m2
21:02 37.274 °F /  2.9 °C 37 °F /  2.8 °C 9999.00in /  338566.1hPa Calm   -999mph /  -1607.7km/h 99% 0.00in /  0mm W/m2
21:06 37.022 °F /  2.8 °C 36.8 °F /  2.7 °C 9999.00in /  338566.1hPa Calm   -999mph /  -1607.7km/h 99% 0.00in /  0mm W/m2
21:12 36.788 °F /  2.7 °C 36.5 °F /  2.5 °C 9999.00in /  338566.1hPa Calm   -999mph /  -1607.7km/h 99% 0.00in /  0mm W/m2
21:17 36.608 °F /  2.6 °C 36.3 °F /  2.4 °C 9999.00in /  338566.1hPa Calm   -999mph /  -1607.7km/h 99% 0.00in /  0mm W/m2
21:21 36.446 °F /  2.5 °C 36.2 °F /  2.3 °C 9999.00in /  338566.1hPa Calm   -999mph /  -1607.7km/h 99% 0.00in /  0mm W/m2
21:27 36.284 °F /  2.4 °C 36 °F /  2.2 °C 9999.00in /  338566.1hPa Calm   -999mph /  -1607.7km/h 99% 0.00in /  0mm W/m2
21:32 36.032 °F /  2.2 °C 35.8 °F /  2.1 °C 9999.00in /  338566.1hPa Calm   -999mph /  -1607.7km/h 99% 0.00in /  0mm W/m2
21:36 35.906 °F /  2.2 °C 35.6 °F /  2 °C 9999.00in /  338566.1hPa Calm   -999mph /  -1607.7km/h 99% 0.00in /  0mm W/m2
21:42 35.69 °F /  2.1 °C 35.4 °F /  1.9 °C 9999.00in /  338566.1hPa Calm   -999mph /  -1607.7km/h 99% 0.00in /  0mm W/m2
21:47 35.546 °F /  2 °C 35.3 °F /  1.8 °C 9999.00in /  338566.1hPa Calm   -999mph /  -1607.7km/h 99% 0.00in /  0mm W/m2
21:52 35.366 °F /  1.9 °C 35.1 °F /  1.7 °C 9999.00in /  338566.1hPa Calm   -999mph /  -1607.7km/h 99% 0.00in /  0mm W/m2
21:57 35.24 °F /  1.8 °C 35 °F /  1.7 °C 9999.00in /  338566.1hPa Calm   -999mph /  -1607.7km/h 99% 0.00in /  0mm W/m2
22:01 36.1 °F /  2.3 °C 31.7 °F /  -0.2 °C 30.01in /  1016.1hPa Calm     84% 0in /  0mm 0.00 W/m2
22:06 36 °F /  2.2 °C 31.6 °F /  -0.2 °C 30.01in /  1016.1hPa Calm     84% 0in /  0mm 0.00 W/m2
22:10 35.9 °F /  2.2 °C 31.5 °F /  -0.3 °C 30.01in /  1016.1hPa ESE 1.2mph /  1.9km/h 0.1mph /  0.2km/h 84% 0in /  0mm 0.00 W/m2
22:15 35.9 °F /  2.2 °C 31.5 °F /  -0.3 °C 30.01in /  1016.1hPa Calm     84% 0in /  0mm 0.00 W/m2
22:20 35.9 °F /  2.2 °C 31.5 °F /  -0.3 °C 30.01in /  1016.1hPa Calm     84% 0in /  0mm 0.00 W/m2
22:25 35.8 °F /  2.1 °C 31.4 °F /  -0.3 °C 30.01in /  1016.1hPa Calm     84% 0in /  0mm 0.00 W/m2
22:30 35.7 °F /  2.1 °C 31.3 °F /  -0.4 °C 30.01in /  1016.1hPa Calm     84% 0in /  0mm 0.00 W/m2
22:35 35.7 °F /  2.1 °C 31.3 °F /  -0.4 °C 30.01in /  1016.1hPa Calm     84% 0in /  0mm 0.00 W/m2
22:40 35.6 °F /  2 °C 31.2 °F /  -0.4 °C 30.01in /  1016.1hPa Calm     84% 0in /  0mm 0.00 W/m2
22:45 35.5 °F /  1.9 °C 31.1 °F /  -0.5 °C 30.01in /  1016.1hPa Calm     84% 0in /  0mm 0.00 W/m2
22:50 35.4 °F /  1.9 °C 31 °F /  -0.6 °C 30.00in /  1015.8hPa Calm     84% 0in /  0mm 0.00 W/m2
22:55 35.3 °F /  1.8 °C 30.9 °F /  -0.6 °C 30.00in /  1015.8hPa Calm     84% 0in /  0mm 0.00 W/m2
23:00 35.2 °F /  1.8 °C 30.9 °F /  -0.6 °C 30.00in /  1015.8hPa Calm     84% 0in /  0mm 0.00 W/m2
23:05 35.1 °F /  1.7 °C 30.8 °F /  -0.7 °C 30.00in /  1015.8hPa Calm     84% 0in /  0mm 0.00 W/m2
23:10 35 °F /  1.7 °C 30.7 °F /  -0.7 °C 30.00in /  1015.8hPa Calm     84% 0in /  0mm 0.00 W/m2
23:15 34.9 °F /  1.6 °C 30.6 °F /  -0.8 °C 30.00in /  1015.8hPa Calm     84% 0in /  0mm 0.00 W/m2
23:20 34.9 °F /  1.6 °C 30.6 °F /  -0.8 °C 30.00in /  1015.8hPa Calm     84% 0in /  0mm 0.00 W/m2
23:25 34.8 °F /  1.6 °C 30.5 °F /  -0.8 °C 30.01in /  1016.1hPa Calm     84% 0in /  0mm 0.00 W/m2
23:30 34.7 °F /  1.5 °C 30.4 °F /  -0.9 °C 30.00in /  1015.8hPa Calm     84% 0in /  0mm 0.00 W/m2
23:35 34.6 °F /  1.4 °C 30.3 °F /  -0.9 °C 30.00in /  1015.8hPa Calm     84% 0in /  0mm 0.00 W/m2
23:40 34.4 °F /  1.3 °C 30.1 °F /  -1.1 °C 30.01in /  1016.1hPa Calm     84% 0in /  0mm 0.00 W/m2
23:45 34.2 °F /  1.2 °C 29.9 °F /  -1.2 °C 30.01in /  1016.1hPa Calm     84% 0in /  0mm 0.00 W/m2
23:50 34.1 °F /  1.2 °C 29.8 °F /  -1.2 °C 30.01in /  1016.1hPa Calm     84% 0in /  0mm 0.00 W/m2
23:55 34 °F /  1.1 °C 29.7 °F /  -1.3 °C 30.01in /  1016.1hPa Calm     84% 0in /  0mm 0.00 W/m2
Winter, Wisconsin USA
Compliments of Weather Underground - 4 mb